Home PIREPS Pireps

Flight BEL12008TR

  • Submitted By: AndrĂ© Vincent
  • Departure Airport: Broken Hill Airport (YBHI)
  • Arrival Airport: Sydney International Airport (YSSY)
  • Aircraft: YOUR CHOICE (YC)
  • Flight Time: 01.53
  • Date Submitted: 14/09/2017
  • Status: Accepted
Flight Details
Gross Revenue:
(25 load / € 0.00 per unit
€ 0.00
Fuel Cost:
(8803 fuel used @ 5.1 / unit)
€ 44,895.30

Additional Log Information:

View Log

Aircraft Used in flight is Boeing 737-800 sabena paint
13:08 Brakes are On
13:11 Brakes are Released
13:16 You Took off @ 197 Knots and Flaps at Position 2
Departure Weather
YBHI 141100Z AUTO 23005KT 9999 // NCD 11/M02 Q1024 RMKrn
13:16 Landing Gear Up @ 195 Knots and 1400 Feet
13:37 You exceeded maximum bank angle
14:37 Below 10000 feet you are not allowed to go over 250 knots
14:58 You Landed @ 121 Knots and with -550 Vertical Speed
Arrival Weather
YSSY 141230Z 27015KT CAVOK 13/M01 Q1017 FM1230 MOD/SEV TURB BLW 5000FTrn
14:58 Your Landing was very hard
14:58 Landing Gear Down @ 93 Knots and 20 Feet
14:58 Stalling
14:58 Recovered from Stall
15:01 Brakes are On
15:01 Brussels Bel-Track1.0.1.2

Route Map

Corporate About Us Our Team Vacancies Information Fleet Route Network Rules and Regulations Operations Flight Schedules Event Center Tours Partners IVAO Vatsim Acars dev FSCB

fb Users Online No pilots online!
0 Pilot(s) and 77 Guest(s) Online
CMS by phpVMS - Design by Crazycreatives.com - Copyright © 2018 - Brussels Airlines Virtual